Bornholm — C4KF2 — position and weather

sailwx.info

Track history (hours):
 
Tides and Currents Weather Stations Pressure Air Temp Water Temp Dewpoint Dewpoint Depression Visibility Wind Speed Wind Dir Waves Ship Positions

Bornholm

Last reported at 2015-Aug-01 23:34 UTC. Time now 2015-Aug-02 00:15 UTC.
Position N 55°31' E 012°41'.

Length 118 m; draft 6.1 m.

Type: Cargo ship. MMSI: 212521000.

Date/timePositionNaut miles runAvg speedWind from/ knotsBaromVisibWave heightAir tempDewpointWater temp
2015-Aug-01 23:34N 55°31' E 012°41'1111.5
2015-Aug-01 22:34N 55°42' E 012°41'1211.5
2015-Aug-01 21:34N 55°54' E 012°38'1111.5
2015-Aug-01 20:33N 56°05' E 012°36'1211.8
2015-Aug-01 19:31N 56°14' E 012°21'1812.9
2015-Aug-01 18:08N 56°30' E 012°05'913.3
2015-Aug-01 17:28N 56°37' E 011°57'1112.7
2015-Aug-01 16:34N 56°48' E 011°49'1312.7
2015-Aug-01 15:33N 57°00' E 011°42'1212.5
2015-Aug-01 14:34N 57°12' E 011°33'1212.3
2015-Aug-01 13:33N 57°21' E 011°19'1212.3
2015-Aug-01 12:33N 57°29' E 011°02'18 4.3
2015-Aug-01 08:29N 57°41' E 010°36'1 0.6
2015-Aug-01 07:27N 57°41' E 010°37'5 5.9
2015-Aug-01 06:34N 57°46' E 010°36'1413.9
2015-Aug-01 05:33N 57°42' E 010°11'2813.6
2015-Aug-01 03:29N 57°28' E 009°26'1613.3
2015-Aug-01 02:15N 57°19' E 009°00'1213.3
2015-Aug-01 01:22N 57°13' E 008°42'11412.3
2015-Jul-31 16:07N 55°39' E 006°46'712.2
2015-Jul-31 15:33N 55°33' E 006°40'1712.1
2015-Jul-31 14:11N 55°19' E 006°25'7112.1
2015-Jul-31 08:18N 54°18' E 005°21'912.0
2015-Jul-31 07:33N 54°10' E 005°13'1211.8
2015-Jul-31 06:33N 53°59' E 005°05'1211.8
2015-Jul-31 05:33N 53°48' E 004°58'1211.9
2015-Jul-31 04:33N 53°37' E 004°51'1312.5
2015-Jul-31 03:33N 53°26' E 004°44'1312.8
2015-Jul-31 02:31N 53°14' E 004°34'1212.6
2015-Jul-31 01:33N 53°03' E 004°24'1212.4
2015-Jul-31 00:33N 52°52' E 004°15'1211.7
2015-Jul-30 23:34N 52°42' E 004°04'1211.5
2015-Jul-30 22:33N 52°34' E 003°51'8111.5
2015-Jul-30 15:32N 51°34' E 002°23'1513.2
2015-Jul-30 14:24N 51°21' E 002°11'1113.4
2015-Jul-30 13:34N 51°12' E 002°00'1514.5
2015-Jul-30 12:34N 51°04' E 001°41'1615.3
2015-Jul-30 11:31N 50°51' E 001°25'  
2015-Jul-27 16:09N 40°40' W 008°52'7 0.2
2015-Jul-26 08:17N 40°39' W 008°43'0 0.0
2015-Jul-26 07:23N 40°39' W 008°43'0 0.0
2015-Jul-26 06:29N 40°39' W 008°43'0 0.0
2015-Jul-26 05:32N 40°39' W 008°43'0 0.0
2015-Jul-26 03:05N 40°39' W 008°43'  
Track history (hours):
 
Tides and Currents Weather Stations Pressure Air Temp Water Temp Dewpoint Dewpoint Depression Visibility Wind Speed Wind Dir Waves Ship Positions

Bornholm

Last reported at 2015-Aug-01 23:34 UTC. Time now 2015-Aug-02 00:15 UTC.
Position N 55°31' E 012°41'.

Length 118 m; draft 6.1 m.

Type: Cargo ship. MMSI: 212521000.

Date/timePositionNaut miles runAvg speedWind from/ knotsBaromVisibWave heightAir tempDewpointWater temp
2015-Aug-01 23:34N 55°31' E 012°41'1111.5
2015-Aug-01 22:34N 55°42' E 012°41'1211.5
2015-Aug-01 21:34N 55°54' E 012°38'1111.5
2015-Aug-01 20:33N 56°05' E 012°36'1211.8
2015-Aug-01 19:31N 56°14' E 012°21'1812.9
2015-Aug-01 18:08N 56°30' E 012°05'913.3
2015-Aug-01 17:28N 56°37' E 011°57'1112.7
2015-Aug-01 16:34N 56°48' E 011°49'1312.7
2015-Aug-01 15:33N 57°00' E 011°42'1212.5
2015-Aug-01 14:34N 57°12' E 011°33'1212.3
2015-Aug-01 13:33N 57°21' E 011°19'1212.3
2015-Aug-01 12:33N 57°29' E 011°02'18 4.3
2015-Aug-01 08:29N 57°41' E 010°36'1 0.6
2015-Aug-01 07:27N 57°41' E 010°37'5 5.9
2015-Aug-01 06:34N 57°46' E 010°36'1413.9
2015-Aug-01 05:33N 57°42' E 010°11'2813.6
2015-Aug-01 03:29N 57°28' E 009°26'1613.3
2015-Aug-01 02:15N 57°19' E 009°00'1213.3
2015-Aug-01 01:22N 57°13' E 008°42'11412.3
2015-Jul-31 16:07N 55°39' E 006°46'712.2
2015-Jul-31 15:33N 55°33' E 006°40'1712.1
2015-Jul-31 14:11N 55°19' E 006°25'7112.1
2015-Jul-31 08:18N 54°18' E 005°21'912.0
2015-Jul-31 07:33N 54°10' E 005°13'1211.8
2015-Jul-31 06:33N 53°59' E 005°05'1211.8
2015-Jul-31 05:33N 53°48' E 004°58'1211.9
2015-Jul-31 04:33N 53°37' E 004°51'1312.5
2015-Jul-31 03:33N 53°26' E 004°44'1312.8
2015-Jul-31 02:31N 53°14' E 004°34'1212.6
2015-Jul-31 01:33N 53°03' E 004°24'1212.4
2015-Jul-31 00:33N 52°52' E 004°15'1211.7
2015-Jul-30 23:34N 52°42' E 004°04'1211.5
2015-Jul-30 22:33N 52°34' E 003°51'8111.5
2015-Jul-30 15:32N 51°34' E 002°23'1513.2
2015-Jul-30 14:24N 51°21' E 002°11'1113.4
2015-Jul-30 13:34N 51°12' E 002°00'1514.5
2015-Jul-30 12:34N 51°04' E 001°41'1615.3
2015-Jul-30 11:31N 50°51' E 001°25'  
2015-Jul-27 16:09N 40°40' W 008°52'7 0.2
2015-Jul-26 08:17N 40°39' W 008°43'0 0.0
2015-Jul-26 07:23N 40°39' W 008°43'0 0.0
2015-Jul-26 06:29N 40°39' W 008°43'0 0.0
2015-Jul-26 05:32N 40°39' W 008°43'0 0.0
2015-Jul-26 03:05N 40°39' W 008°43'  

Dump ship's entire track history